sensor_id;sensor_type;location;lat;lon;timestamp;P1;durP1;ratioP1;P2;durP2;ratioP2
56102;SDS011;41970;48.774;9.280;2024-01-15T00:02:04;21.35;;;10.43;;
56102;SDS011;41970;48.774;9.280;2024-01-15T00:04:31;18.25;;;9.57;;
56102;SDS011;41970;48.774;9.280;2024-01-15T00:07:05;18.98;;;10.40;;
56102;SDS011;41970;48.774;9.280;2024-01-15T00:09:31;19.80;;;10.15;;
56102;SDS011;41970;48.774;9.280;2024-01-15T00:11:57;14.40;;;9.43;;
56102;SDS011;41970;48.774;9.280;2024-01-15T00:14:23;15.63;;;7.67;;
56102;SDS011;41970;48.774;9.280;2024-01-15T00:16:49;15.98;;;8.63;;
56102;SDS011;41970;48.774;9.280;2024-01-15T00:19:16;15.65;;;8.45;;
56102;SDS011;41970;48.774;9.280;2024-01-15T00:21:43;13.00;;;7.75;;
56102;SDS011;41970;48.774;9.280;2024-01-15T00:24:09;14.43;;;7.30;;
56102;SDS011;41970;48.774;9.280;2024-01-15T00:26:35;17.23;;;8.80;;
56102;SDS011;41970;48.774;9.280;2024-01-15T00:29:01;15.80;;;8.90;;
56102;SDS011;41970;48.774;9.280;2024-01-15T00:31:28;17.90;;;9.45;;
56102;SDS011;41970;48.774;9.280;2024-01-15T00:33:55;14.77;;;8.02;;
56102;SDS011;41970;48.774;9.280;2024-01-15T00:36:22;22.40;;;9.98;;
56102;SDS011;41970;48.774;9.280;2024-01-15T00:38:48;17.20;;;8.80;;
56102;SDS011;41970;48.774;9.280;2024-01-15T00:41:14;13.63;;;7.93;;
56102;SDS011;41970;48.774;9.280;2024-01-15T00:43:40;14.18;;;7.75;;
56102;SDS011;41970;48.774;9.280;2024-01-15T00:46:06;15.73;;;8.37;;
56102;SDS011;41970;48.774;9.280;2024-01-15T00:48:32;11.90;;;7.97;;
56102;SDS011;41970;48.774;9.280;2024-01-15T00:50:57;11.87;;;7.27;;
56102;SDS011;41970;48.774;9.280;2024-01-15T00:53:23;15.50;;;8.80;;
56102;SDS011;41970;48.774;9.280;2024-01-15T00:55:50;14.40;;;7.60;;
56102;SDS011;41970;48.774;9.280;2024-01-15T00:58:16;13.37;;;6.63;;
56102;SDS011;41970;48.774;9.280;2024-01-15T01:00:42;13.73;;;8.13;;
56102;SDS011;41970;48.774;9.280;2024-01-15T01:03:08;13.53;;;8.33;;
56102;SDS011;41970;48.774;9.280;2024-01-15T01:05:34;16.50;;;7.57;;
56102;SDS011;41970;48.774;9.280;2024-01-15T01:08:00;14.48;;;9.00;;
56102;SDS011;41970;48.774;9.280;2024-01-15T01:10:26;20.63;;;9.23;;
56102;SDS011;41970;48.774;9.280;2024-01-15T01:12:52;14.38;;;8.10;;
56102;SDS011;41970;48.774;9.280;2024-01-15T01:15:18;10.60;;;7.00;;
56102;SDS011;41970;48.774;9.280;2024-01-15T01:17:44;16.10;;;7.63;;
56102;SDS011;41970;48.774;9.280;2024-01-15T01:20:09;16.47;;;8.07;;
56102;SDS011;41970;48.774;9.280;2024-01-15T01:22:35;12.93;;;7.07;;
56102;SDS011;41970;48.774;9.280;2024-01-15T01:25:02;14.70;;;8.25;;
56102;SDS011;41970;48.774;9.280;2024-01-15T01:27:28;14.63;;;7.72;;
56102;SDS011;41970;48.774;9.280;2024-01-15T01:29:53;16.27;;;8.00;;
56102;SDS011;41970;48.774;9.280;2024-01-15T01:32:19;16.73;;;8.20;;
56102;SDS011;41970;48.774;9.280;2024-01-15T01:34:45;13.67;;;7.20;;
56102;SDS011;41970;48.774;9.280;2024-01-15T01:37:11;9.67;;;6.83;;
56102;SDS011;41970;48.774;9.280;2024-01-15T01:39:43;14.90;;;7.90;;
56102;SDS011;41970;48.774;9.280;2024-01-15T01:42:09;14.45;;;7.00;;
56102;SDS011;41970;48.774;9.280;2024-01-15T01:44:36;14.25;;;8.05;;
56102;SDS011;41970;48.774;9.280;2024-01-15T01:47:02;15.03;;;7.40;;
56102;SDS011;41970;48.774;9.280;2024-01-15T01:49:28;17.02;;;8.35;;
56102;SDS011;41970;48.774;9.280;2024-01-15T01:51:56;16.92;;;7.85;;
56102;SDS011;41970;48.774;9.280;2024-01-15T01:54:23;11.15;;;7.10;;
56102;SDS011;41970;48.774;9.280;2024-01-15T01:56:51;13.55;;;7.70;;
56102;SDS011;41970;48.774;9.280;2024-01-15T01:59:17;22.53;;;9.00;;
56102;SDS011;41970;48.774;9.280;2024-01-15T02:01:43;16.13;;;8.82;;
56102;SDS011;41970;48.774;9.280;2024-01-15T02:04:10;10.88;;;7.15;;
56102;SDS011;41970;48.774;9.280;2024-01-15T02:06:36;11.38;;;6.88;;
56102;SDS011;41970;48.774;9.280;2024-01-15T02:09:03;11.80;;;7.40;;
56102;SDS011;41970;48.774;9.280;2024-01-15T02:11:30;16.13;;;9.40;;
56102;SDS011;41970;48.774;9.280;2024-01-15T02:13:56;12.75;;;7.78;;
56102;SDS011;41970;48.774;9.280;2024-01-15T02:16:22;15.90;;;8.73;;
56102;SDS011;41970;48.774;9.280;2024-01-15T02:18:48;14.57;;;8.43;;
56102;SDS011;41970;48.774;9.280;2024-01-15T02:21:14;17.00;;;7.87;;
56102;SDS011;41970;48.774;9.280;2024-01-15T02:23:39;14.10;;;8.13;;
56102;SDS011;41970;48.774;9.280;2024-01-15T02:26:05;14.30;;;8.67;;
56102;SDS011;41970;48.774;9.280;2024-01-15T02:28:32;11.13;;;7.40;;
56102;SDS011;41970;48.774;9.280;2024-01-15T02:30:59;16.58;;;8.32;;
56102;SDS011;41970;48.774;9.280;2024-01-15T02:33:25;15.48;;;7.57;;
56102;SDS011;41970;48.774;9.280;2024-01-15T02:35:51;13.37;;;6.30;;
56102;SDS011;41970;48.774;9.280;2024-01-15T02:38:17;17.47;;;7.30;;
56102;SDS011;41970;48.774;9.280;2024-01-15T02:40:43;16.63;;;7.43;;
56102;SDS011;41970;48.774;9.280;2024-01-15T02:43:10;13.63;;;7.28;;
56102;SDS011;41970;48.774;9.280;2024-01-15T02:45:36;10.83;;;5.90;;
56102;SDS011;41970;48.774;9.280;2024-01-15T02:48:01;13.70;;;7.57;;
56102;SDS011;41970;48.774;9.280;2024-01-15T02:50:27;11.10;;;7.00;;
56102;SDS011;41970;48.774;9.280;2024-01-15T02:52:53;16.33;;;7.30;;
56102;SDS011;41970;48.774;9.280;2024-01-15T02:55:19;11.43;;;6.80;;
56102;SDS011;41970;48.774;9.280;2024-01-15T02:57:45;11.40;;;6.80;;
56102;SDS011;41970;48.774;9.280;2024-01-15T03:00:11;12.32;;;8.50;;
56102;SDS011;41970;48.774;9.280;2024-01-15T03:02:37;13.27;;;6.75;;
56102;SDS011;41970;48.774;9.280;2024-01-15T03:05:08;10.63;;;6.45;;
56102;SDS011;41970;48.774;9.280;2024-01-15T03:07:35;14.40;;;7.68;;
56102;SDS011;41970;48.774;9.280;2024-01-15T03:10:01;12.73;;;6.75;;
56102;SDS011;41970;48.774;9.280;2024-01-15T03:12:26;11.23;;;7.13;;
56102;SDS011;41970;48.774;9.280;2024-01-15T03:14:52;14.57;;;7.37;;
56102;SDS011;41970;48.774;9.280;2024-01-15T03:17:18;15.10;;;7.70;;
56102;SDS011;41970;48.774;9.280;2024-01-15T03:19:44;10.52;;;6.30;;
56102;SDS011;41970;48.774;9.280;2024-01-15T03:22:10;16.00;;;8.47;;
56102;SDS011;41970;48.774;9.280;2024-01-15T03:24:36;12.80;;;6.97;;
56102;SDS011;41970;48.774;9.280;2024-01-15T03:27:02;15.18;;;6.45;;
56102;SDS011;41970;48.774;9.280;2024-01-15T03:29:28;11.50;;;6.30;;
56102;SDS011;41970;48.774;9.280;2024-01-15T03:31:54;11.07;;;7.33;;
56102;SDS011;41970;48.774;9.280;2024-01-15T03:34:19;12.33;;;6.67;;
56102;SDS011;41970;48.774;9.280;2024-01-15T03:36:45;14.30;;;7.43;;
56102;SDS011;41970;48.774;9.280;2024-01-15T03:39:11;12.73;;;7.70;;
56102;SDS011;41970;48.774;9.280;2024-01-15T03:41:37;14.03;;;7.23;;
56102;SDS011;41970;48.774;9.280;2024-01-15T03:44:03;13.30;;;7.70;;
56102;SDS011;41970;48.774;9.280;2024-01-15T03:46:28;16.90;;;7.70;;
56102;SDS011;41970;48.774;9.280;2024-01-15T03:48:54;10.83;;;8.20;;
56102;SDS011;41970;48.774;9.280;2024-01-15T03:51:20;11.70;;;6.23;;
56102;SDS011;41970;48.774;9.280;2024-01-15T03:53:46;16.57;;;8.17;;
56102;SDS011;41970;48.774;9.280;2024-01-15T03:56:12;15.90;;;6.83;;
56102;SDS011;41970;48.774;9.280;2024-01-15T03:58:37;15.40;;;6.73;;
56102;SDS011;41970;48.774;9.280;2024-01-15T04:01:09;15.77;;;6.72;;
56102;SDS011;41970;48.774;9.280;2024-01-15T04:03:35;13.07;;;7.93;;
56102;SDS011;41970;48.774;9.280;2024-01-15T04:06:01;14.48;;;6.43;;
56102;SDS011;41970;48.774;9.280;2024-01-15T04:08:28;12.88;;;7.95;;
56102;SDS011;41970;48.774;9.280;2024-01-15T04:10:54;11.20;;;7.23;;
56102;SDS011;41970;48.774;9.280;2024-01-15T04:13:20;11.43;;;7.40;;
56102;SDS011;41970;48.774;9.280;2024-01-15T04:15:46;14.50;;;7.43;;
56102;SDS011;41970;48.774;9.280;2024-01-15T04:18:11;14.70;;;8.20;;
56102;SDS011;41970;48.774;9.280;2024-01-15T04:20:37;16.67;;;7.27;;
56102;SDS011;41970;48.774;9.280;2024-01-15T04:23:03;10.63;;;7.25;;
56102;SDS011;41970;48.774;9.280;2024-01-15T04:25:29;14.93;;;7.93;;
56102;SDS011;41970;48.774;9.280;2024-01-15T04:27:55;13.80;;;6.70;;
56102;SDS011;41970;48.774;9.280;2024-01-15T04:30:21;13.73;;;8.50;;
56102;SDS011;41970;48.774;9.280;2024-01-15T04:32:47;10.60;;;6.20;;
56102;SDS011;41970;48.774;9.280;2024-01-15T04:35:13;12.40;;;7.23;;
56102;SDS011;41970;48.774;9.280;2024-01-15T04:37:42;12.90;;;8.03;;
56102;SDS011;41970;48.774;9.280;2024-01-15T04:40:08;15.70;;;6.13;;
56102;SDS011;41970;48.774;9.280;2024-01-15T04:42:34;13.05;;;7.03;;
56102;SDS011;41970;48.774;9.280;2024-01-15T04:45:00;12.00;;;7.03;;
56102;SDS011;41970;48.774;9.280;2024-01-15T04:47:26;8.50;;;5.50;;
56102;SDS011;41970;48.774;9.280;2024-01-15T04:49:51;12.43;;;6.77;;
56102;SDS011;41970;48.774;9.280;2024-01-15T04:52:17;16.83;;;7.50;;
56102;SDS011;41970;48.774;9.280;2024-01-15T04:54:43;14.57;;;6.50;;
56102;SDS011;41970;48.774;9.280;2024-01-15T04:57:09;14.50;;;8.07;;
56102;SDS011;41970;48.774;9.280;2024-01-15T04:59:35;12.33;;;6.60;;
56102;SDS011;41970;48.774;9.280;2024-01-15T05:02:02;12.90;;;6.17;;
56102;SDS011;41970;48.774;9.280;2024-01-15T05:04:28;12.23;;;7.28;;
56102;SDS011;41970;48.774;9.280;2024-01-15T05:06:54;12.53;;;6.87;;
56102;SDS011;41970;48.774;9.280;2024-01-15T05:09:20;7.40;;;5.20;;
56102;SDS011;41970;48.774;9.280;2024-01-15T05:11:46;11.90;;;5.77;;
56102;SDS011;41970;48.774;9.280;2024-01-15T05:14:12;12.57;;;6.13;;
56102;SDS011;41970;48.774;9.280;2024-01-15T05:16:38;13.47;;;7.53;;
56102;SDS011;41970;48.774;9.280;2024-01-15T05:19:06;11.35;;;6.53;;
56102;SDS011;41970;48.774;9.280;2024-01-15T05:21:32;15.52;;;7.15;;
56102;SDS011;41970;48.774;9.280;2024-01-15T05:23:58;11.83;;;6.20;;
56102;SDS011;41970;48.774;9.280;2024-01-15T05:26:24;9.20;;;5.40;;
56102;SDS011;41970;48.774;9.280;2024-01-15T05:28:50;9.47;;;5.43;;
56102;SDS011;41970;48.774;9.280;2024-01-15T05:31:15;14.57;;;6.70;;
56102;SDS011;41970;48.774;9.280;2024-01-15T05:33:41;9.60;;;5.60;;
56102;SDS011;41970;48.774;9.280;2024-01-15T05:36:07;10.70;;;6.30;;
56102;SDS011;41970;48.774;9.280;2024-01-15T05:38:33;10.93;;;5.80;;
56102;SDS011;41970;48.774;9.280;2024-01-15T05:40:58;11.93;;;6.10;;
56102;SDS011;41970;48.774;9.280;2024-01-15T05:43:24;9.93;;;5.50;;
56102;SDS011;41970;48.774;9.280;2024-01-15T05:45:50;8.87;;;6.43;;
56102;SDS011;41970;48.774;9.280;2024-01-15T05:48:16;10.03;;;5.13;;
56102;SDS011;41970;48.774;9.280;2024-01-15T05:50:41;10.37;;;6.07;;
56102;SDS011;41970;48.774;9.280;2024-01-15T05:53:07;11.63;;;6.20;;
56102;SDS011;41970;48.774;9.280;2024-01-15T05:55:35;11.10;;;5.63;;
56102;SDS011;41970;48.774;9.280;2024-01-15T05:58:02;13.95;;;7.00;;
56102;SDS011;41970;48.774;9.280;2024-01-15T06:00:30;7.15;;;4.47;;
56102;SDS011;41970;48.774;9.280;2024-01-15T06:02:58;10.57;;;5.50;;
56102;SDS011;41970;48.774;9.280;2024-01-15T06:05:24;12.75;;;5.85;;
56102;SDS011;41970;48.774;9.280;2024-01-15T06:07:50;12.47;;;6.73;;
56102;SDS011;41970;48.774;9.280;2024-01-15T06:10:16;8.80;;;6.13;;
56102;SDS011;41970;48.774;9.280;2024-01-15T06:12:43;10.50;;;6.17;;
56102;SDS011;41970;48.774;9.280;2024-01-15T06:15:09;11.05;;;6.85;;
56102;SDS011;41970;48.774;9.280;2024-01-15T06:17:35;12.68;;;6.97;;
56102;SDS011;41970;48.774;9.280;2024-01-15T06:20:01;14.50;;;6.83;;
56102;SDS011;41970;48.774;9.280;2024-01-15T06:22:28;11.40;;;6.88;;
56102;SDS011;41970;48.774;9.280;2024-01-15T06:24:54;13.50;;;7.50;;
56102;SDS011;41970;48.774;9.280;2024-01-15T06:27:20;14.63;;;7.47;;
56102;SDS011;41970;48.774;9.280;2024-01-15T06:29:47;12.00;;;6.95;;
56102;SDS011;41970;48.774;9.280;2024-01-15T06:32:13;12.52;;;7.20;;
56102;SDS011;41970;48.774;9.280;2024-01-15T06:34:39;10.38;;;7.40;;
56102;SDS011;41970;48.774;9.280;2024-01-15T06:37:05;16.00;;;7.73;;
56102;SDS011;41970;48.774;9.280;2024-01-15T06:39:31;17.05;;;8.77;;
56102;SDS011;41970;48.774;9.280;2024-01-15T06:41:57;12.47;;;7.50;;
56102;SDS011;41970;48.774;9.280;2024-01-15T06:44:23;12.37;;;7.60;;
56102;SDS011;41970;48.774;9.280;2024-01-15T06:46:48;11.43;;;6.80;;
56102;SDS011;41970;48.774;9.280;2024-01-15T06:49:14;14.30;;;7.70;;
56102;SDS011;41970;48.774;9.280;2024-01-15T06:51:40;10.37;;;7.00;;
56102;SDS011;41970;48.774;9.280;2024-01-15T06:54:06;13.32;;;8.35;;
56102;SDS011;41970;48.774;9.280;2024-01-15T06:56:32;14.93;;;7.70;;
56102;SDS011;41970;48.774;9.280;2024-01-15T06:58:58;12.20;;;6.30;;
56102;SDS011;41970;48.774;9.280;2024-01-15T07:01:24;11.50;;;6.70;;
56102;SDS011;41970;48.774;9.280;2024-01-15T07:03:49;8.40;;;6.00;;
56102;SDS011;41970;48.774;9.280;2024-01-15T07:06:15;14.30;;;7.77;;
56102;SDS011;41970;48.774;9.280;2024-01-15T07:08:42;12.60;;;7.03;;
56102;SDS011;41970;48.774;9.280;2024-01-15T07:11:08;10.77;;;7.00;;
56102;SDS011;41970;48.774;9.280;2024-01-15T07:13:34;13.43;;;7.65;;
56102;SDS011;41970;48.774;9.280;2024-01-15T07:16:01;8.88;;;7.10;;
56102;SDS011;41970;48.774;9.280;2024-01-15T07:18:27;9.55;;;6.32;;
56102;SDS011;41970;48.774;9.280;2024-01-15T07:20:52;11.60;;;6.97;;
56102;SDS011;41970;48.774;9.280;2024-01-15T07:23:18;11.13;;;5.97;;
56102;SDS011;41970;48.774;9.280;2024-01-15T07:25:44;11.43;;;6.50;;
56102;SDS011;41970;48.774;9.280;2024-01-15T07:28:10;12.60;;;6.90;;
56102;SDS011;41970;48.774;9.280;2024-01-15T07:30:36;9.07;;;5.53;;
56102;SDS011;41970;48.774;9.280;2024-01-15T07:33:04;8.68;;;5.68;;
56102;SDS011;41970;48.774;9.280;2024-01-15T07:35:30;9.25;;;6.60;;
56102;SDS011;41970;48.774;9.280;2024-01-15T07:37:56;9.93;;;6.68;;
56102;SDS011;41970;48.774;9.280;2024-01-15T07:40:22;9.37;;;6.10;;
56102;SDS011;41970;48.774;9.280;2024-01-15T07:42:49;11.05;;;6.32;;
56102;SDS011;41970;48.774;9.280;2024-01-15T07:45:16;13.07;;;7.22;;
56102;SDS011;41970;48.774;9.280;2024-01-15T07:47:42;13.35;;;7.25;;
56102;SDS011;41970;48.774;9.280;2024-01-15T07:50:08;8.88;;;6.15;;
56102;SDS011;41970;48.774;9.280;2024-01-15T07:52:34;12.13;;;6.53;;
56102;SDS011;41970;48.774;9.280;2024-01-15T07:55:00;9.65;;;5.97;;
56102;SDS011;41970;48.774;9.280;2024-01-15T07:57:26;8.57;;;6.00;;
56102;SDS011;41970;48.774;9.280;2024-01-15T07:59:52;9.17;;;5.73;;
56102;SDS011;41970;48.774;9.280;2024-01-15T08:02:17;9.63;;;5.17;;
56102;SDS011;41970;48.774;9.280;2024-01-15T08:04:43;12.50;;;5.37;;
56102;SDS011;41970;48.774;9.280;2024-01-15T08:07:10;9.55;;;5.13;;
56102;SDS011;41970;48.774;9.280;2024-01-15T08:09:35;9.20;;;6.97;;
56102;SDS011;41970;48.774;9.280;2024-01-15T08:12:01;9.07;;;5.90;;
56102;SDS011;41970;48.774;9.280;2024-01-15T08:14:27;10.15;;;5.38;;
56102;SDS011;41970;48.774;9.280;2024-01-15T08:16:53;11.23;;;5.33;;
56102;SDS011;41970;48.774;9.280;2024-01-15T08:19:19;11.80;;;6.63;;
56102;SDS011;41970;48.774;9.280;2024-01-15T08:21:45;7.10;;;4.67;;
56102;SDS011;41970;48.774;9.280;2024-01-15T08:24:11;18.53;;;6.73;;
56102;SDS011;41970;48.774;9.280;2024-01-15T08:26:36;12.83;;;6.60;;
56102;SDS011;41970;48.774;9.280;2024-01-15T08:29:02;9.67;;;5.73;;
56102;SDS011;41970;48.774;9.280;2024-01-15T08:31:28;7.73;;;5.30;;
56102;SDS011;41970;48.774;9.280;2024-01-15T08:33:54;9.90;;;5.87;;
56102;SDS011;41970;48.774;9.280;2024-01-15T08:36:20;7.65;;;5.10;;
56102;SDS011;41970;48.774;9.280;2024-01-15T08:38:46;9.23;;;5.10;;
56102;SDS011;41970;48.774;9.280;2024-01-15T08:41:13;8.80;;;5.00;;
56102;SDS011;41970;48.774;9.280;2024-01-15T08:43:38;6.97;;;5.53;;
56102;SDS011;41970;48.774;9.280;2024-01-15T08:46:04;6.93;;;5.10;;
56102;SDS011;41970;48.774;9.280;2024-01-15T08:48:30;7.47;;;5.43;;
56102;SDS011;41970;48.774;9.280;2024-01-15T08:50:56;11.20;;;5.10;;
56102;SDS011;41970;48.774;9.280;2024-01-15T08:53:22;8.23;;;4.90;;
56102;SDS011;41970;48.774;9.280;2024-01-15T08:55:48;8.80;;;5.00;;
56102;SDS011;41970;48.774;9.280;2024-01-15T08:58:14;8.63;;;4.75;;
56102;SDS011;41970;48.774;9.280;2024-01-15T09:00:40;8.13;;;5.20;;
56102;SDS011;41970;48.774;9.280;2024-01-15T09:03:05;11.47;;;4.87;;
56102;SDS011;41970;48.774;9.280;2024-01-15T09:05:33;11.75;;;5.45;;
56102;SDS011;41970;48.774;9.280;2024-01-15T09:07:59;8.10;;;5.70;;
56102;SDS011;41970;48.774;9.280;2024-01-15T09:10:25;6.83;;;5.10;;
56102;SDS011;41970;48.774;9.280;2024-01-15T09:12:50;8.07;;;5.10;;
56102;SDS011;41970;48.774;9.280;2024-01-15T09:15:16;8.67;;;5.33;;
56102;SDS011;41970;48.774;9.280;2024-01-15T09:17:42;8.00;;;5.13;;
56102;SDS011;41970;48.774;9.280;2024-01-15T09:20:08;8.23;;;4.93;;
56102;SDS011;41970;48.774;9.280;2024-01-15T09:22:35;8.23;;;5.35;;
56102;SDS011;41970;48.774;9.280;2024-01-15T09:25:04;7.10;;;4.93;;
56102;SDS011;41970;48.774;9.280;2024-01-15T09:27:30;6.67;;;4.77;;
56102;SDS011;41970;48.774;9.280;2024-01-15T09:29:56;6.53;;;4.20;;
56102;SDS011;41970;48.774;9.280;2024-01-15T09:32:21;6.13;;;4.03;;
56102;SDS011;41970;48.774;9.280;2024-01-15T09:34:47;8.25;;;6.03;;
56102;SDS011;41970;48.774;9.280;2024-01-15T09:37:14;7.35;;;4.13;;
56102;SDS011;41970;48.774;9.280;2024-01-15T09:39:40;5.78;;;4.53;;
56102;SDS011;41970;48.774;9.280;2024-01-15T09:42:06;6.88;;;4.07;;
56102;SDS011;41970;48.774;9.280;2024-01-15T09:44:33;5.70;;;3.72;;
56102;SDS011;41970;48.774;9.280;2024-01-15T09:46:59;6.63;;;3.90;;
56102;SDS011;41970;48.774;9.280;2024-01-15T09:49:26;7.85;;;4.95;;
56102;SDS011;41970;48.774;9.280;2024-01-15T09:51:52;4.30;;;2.97;;
56102;SDS011;41970;48.774;9.280;2024-01-15T09:54:19;6.95;;;4.07;;
56102;SDS011;41970;48.774;9.280;2024-01-15T09:56:46;9.75;;;4.13;;
56102;SDS011;41970;48.774;9.280;2024-01-15T09:59:16;6.53;;;3.38;;
56102;SDS011;41970;48.774;9.280;2024-01-15T10:01:43;7.30;;;4.10;;
56102;SDS011;41970;48.774;9.280;2024-01-15T10:04:10;5.72;;;3.70;;
56102;SDS011;41970;48.774;9.280;2024-01-15T10:06:43;9.02;;;3.15;;
56102;SDS011;41970;48.774;9.280;2024-01-15T10:09:12;5.22;;;3.45;;
56102;SDS011;41970;48.774;9.280;2024-01-15T10:11:41;11.90;;;3.88;;
56102;SDS011;41970;48.774;9.280;2024-01-15T10:14:08;7.45;;;3.75;;
56102;SDS011;41970;48.774;9.280;2024-01-15T10:16:38;5.78;;;3.70;;
56102;SDS011;41970;48.774;9.280;2024-01-15T10:19:07;4.25;;;3.10;;
56102;SDS011;41970;48.774;9.280;2024-01-15T10:21:34;8.10;;;4.30;;
56102;SDS011;41970;48.774;9.280;2024-01-15T10:24:00;4.95;;;3.97;;
56102;SDS011;41970;48.774;9.280;2024-01-15T10:26:27;6.05;;;3.83;;
56102;SDS011;41970;48.774;9.280;2024-01-15T10:28:54;6.47;;;3.70;;
56102;SDS011;41970;48.774;9.280;2024-01-15T10:31:19;6.17;;;4.13;;
56102;SDS011;41970;48.774;9.280;2024-01-15T10:33:49;7.55;;;4.10;;
56102;SDS011;41970;48.774;9.280;2024-01-15T10:36:16;7.88;;;4.15;;
56102;SDS011;41970;48.774;9.280;2024-01-15T10:38:45;9.32;;;5.25;;
56102;SDS011;41970;48.774;9.280;2024-01-15T10:41:12;7.03;;;4.45;;
56102;SDS011;41970;48.774;9.280;2024-01-15T10:43:37;6.90;;;4.77;;
56102;SDS011;41970;48.774;9.280;2024-01-15T10:46:06;4.70;;;3.78;;
56102;SDS011;41970;48.774;9.280;2024-01-15T10:48:32;5.78;;;3.78;;
56102;SDS011;41970;48.774;9.280;2024-01-15T10:51:00;7.25;;;4.40;;
56102;SDS011;41970;48.774;9.280;2024-01-15T10:53:28;7.03;;;4.18;;
56102;SDS011;41970;48.774;9.280;2024-01-15T10:55:56;6.95;;;4.10;;
56102;SDS011;41970;48.774;9.280;2024-01-15T10:58:23;9.38;;;4.18;;
56102;SDS011;41970;48.774;9.280;2024-01-15T11:00:53;6.85;;;4.00;;
56102;SDS011;41970;48.774;9.280;2024-01-15T11:03:20;6.88;;;4.25;;
56102;SDS011;41970;48.774;9.280;2024-01-15T11:05:46;6.77;;;3.87;;
56102;SDS011;41970;48.774;9.280;2024-01-15T11:08:12;6.43;;;4.20;;
56102;SDS011;41970;48.774;9.280;2024-01-15T11:16:01;6.35;;;3.40;;
56102;SDS011;41970;48.774;9.280;2024-01-15T11:18:40;8.65;;;3.83;;
56102;SDS011;41970;48.774;9.280;2024-01-15T11:23:46;6.72;;;3.15;;
56102;SDS011;41970;48.774;9.280;2024-01-15T11:29:07;5.63;;;3.67;;
56102;SDS011;41970;48.774;9.280;2024-01-15T11:34:05;7.35;;;4.50;;
56102;SDS011;41970;48.774;9.280;2024-01-15T11:44:24;6.53;;;4.15;;
56102;SDS011;41970;48.774;9.280;2024-01-15T11:46:57;6.00;;;4.13;;
56102;SDS011;41970;48.774;9.280;2024-01-15T11:52:09;6.90;;;4.63;;
56102;SDS011;41970;48.774;9.280;2024-01-15T11:54:38;8.27;;;3.85;;
56102;SDS011;41970;48.774;9.280;2024-01-15T11:57:12;6.00;;;3.35;;
56102;SDS011;41970;48.774;9.280;2024-01-15T11:59:47;9.90;;;5.00;;
56102;SDS011;41970;48.774;9.280;2024-01-15T12:02:13;7.22;;;3.92;;
56102;SDS011;41970;48.774;9.280;2024-01-15T12:04:39;6.20;;;4.50;;
56102;SDS011;41970;48.774;9.280;2024-01-15T12:07:05;5.88;;;4.50;;
56102;SDS011;41970;48.774;9.280;2024-01-15T12:09:31;6.53;;;4.00;;
56102;SDS011;41970;48.774;9.280;2024-01-15T12:12:02;7.20;;;4.47;;
56102;SDS011;41970;48.774;9.280;2024-01-15T12:14:32;7.25;;;4.30;;
56102;SDS011;41970;48.774;9.280;2024-01-15T12:17:00;5.72;;;4.45;;
56102;SDS011;41970;48.774;9.280;2024-01-15T12:19:26;8.38;;;5.43;;
56102;SDS011;41970;48.774;9.280;2024-01-15T12:21:51;6.40;;;4.70;;
56102;SDS011;41970;48.774;9.280;2024-01-15T12:24:17;6.97;;;5.10;;
56102;SDS011;41970;48.774;9.280;2024-01-15T12:26:43;6.43;;;4.20;;
56102;SDS011;41970;48.774;9.280;2024-01-15T12:29:10;6.57;;;4.22;;
56102;SDS011;41970;48.774;9.280;2024-01-15T12:31:36;5.80;;;4.50;;
56102;SDS011;41970;48.774;9.280;2024-01-15T12:34:02;7.93;;;4.93;;
56102;SDS011;41970;48.774;9.280;2024-01-15T12:36:31;5.00;;;3.73;;
56102;SDS011;41970;48.774;9.280;2024-01-15T12:39:00;7.45;;;4.65;;
56102;SDS011;41970;48.774;9.280;2024-01-15T12:41:26;5.80;;;4.88;;
56102;SDS011;41970;48.774;9.280;2024-01-15T12:43:51;10.37;;;4.10;;
56102;SDS011;41970;48.774;9.280;2024-01-15T12:46:18;7.47;;;4.97;;
56102;SDS011;41970;48.774;9.280;2024-01-15T12:48:44;10.23;;;4.47;;
56102;SDS011;41970;48.774;9.280;2024-01-15T12:51:10;8.70;;;5.95;;
56102;SDS011;41970;48.774;9.280;2024-01-15T12:53:36;5.73;;;4.77;;
56102;SDS011;41970;48.774;9.280;2024-01-15T12:56:02;8.48;;;5.00;;
56102;SDS011;41970;48.774;9.280;2024-01-15T12:58:28;9.53;;;5.40;;
56102;SDS011;41970;48.774;9.280;2024-01-15T13:00:54;10.10;;;5.40;;
56102;SDS011;41970;48.774;9.280;2024-01-15T13:03:19;6.87;;;4.27;;
56102;SDS011;41970;48.774;9.280;2024-01-15T13:05:47;8.25;;;4.85;;
56102;SDS011;41970;48.774;9.280;2024-01-15T13:08:14;7.72;;;5.10;;
56102;SDS011;41970;48.774;9.280;2024-01-15T13:10:39;12.33;;;6.47;;
56102;SDS011;41970;48.774;9.280;2024-01-15T13:13:07;11.65;;;5.70;;
56102;SDS011;41970;48.774;9.280;2024-01-15T13:15:33;8.73;;;5.77;;
56102;SDS011;41970;48.774;9.280;2024-01-15T13:17:58;8.50;;;4.90;;
56102;SDS011;41970;48.774;9.280;2024-01-15T13:20:24;5.90;;;4.40;;
56102;SDS011;41970;48.774;9.280;2024-01-15T13:22:50;8.83;;;5.57;;
56102;SDS011;41970;48.774;9.280;2024-01-15T13:25:16;6.80;;;4.30;;
56102;SDS011;41970;48.774;9.280;2024-01-15T13:27:41;8.53;;;5.40;;
56102;SDS011;41970;48.774;9.280;2024-01-15T13:30:07;7.30;;;4.17;;
56102;SDS011;41970;48.774;9.280;2024-01-15T13:32:34;7.57;;;4.05;;
56102;SDS011;41970;48.774;9.280;2024-01-15T13:35:00;5.47;;;3.65;;
56102;SDS011;41970;48.774;9.280;2024-01-15T13:37:26;6.07;;;4.20;;
56102;SDS011;41970;48.774;9.280;2024-01-15T13:39:52;6.47;;;4.72;;
56102;SDS011;41970;48.774;9.280;2024-01-15T13:42:18;10.20;;;4.22;;
56102;SDS011;41970;48.774;9.280;2024-01-15T13:44:46;4.80;;;3.15;;
56102;SDS011;41970;48.774;9.280;2024-01-15T13:47:12;6.97;;;3.70;;
56102;SDS011;41970;48.774;9.280;2024-01-15T13:49:38;4.97;;;3.10;;
56102;SDS011;41970;48.774;9.280;2024-01-15T13:52:04;6.30;;;2.87;;
56102;SDS011;41970;48.774;9.280;2024-01-15T13:54:30;2.90;;;2.13;;
56102;SDS011;41970;48.774;9.280;2024-01-15T13:56:56;3.60;;;2.67;;
56102;SDS011;41970;48.774;9.280;2024-01-15T13:59:23;5.40;;;3.25;;
56102;SDS011;41970;48.774;9.280;2024-01-15T14:01:50;3.38;;;3.08;;
56102;SDS011;41970;48.774;9.280;2024-01-15T14:04:15;3.47;;;2.57;;
56102;SDS011;41970;48.774;9.280;2024-01-15T14:06:41;6.80;;;4.80;;
56102;SDS011;41970;48.774;9.280;2024-01-15T14:09:07;5.60;;;3.40;;
56102;SDS011;41970;48.774;9.280;2024-01-15T14:11:35;4.45;;;3.20;;
56102;SDS011;41970;48.774;9.280;2024-01-15T14:14:02;4.80;;;3.35;;
56102;SDS011;41970;48.774;9.280;2024-01-15T14:16:28;3.45;;;3.15;;
56102;SDS011;41970;48.774;9.280;2024-01-15T14:18:54;3.97;;;3.00;;
56102;SDS011;41970;48.774;9.280;2024-01-15T14:21:20;4.87;;;3.60;;
56102;SDS011;41970;48.774;9.280;2024-01-15T14:23:46;5.53;;;2.90;;
56102;SDS011;41970;48.774;9.280;2024-01-15T14:26:12;2.90;;;2.38;;
56102;SDS011;41970;48.774;9.280;2024-01-15T14:28:37;3.90;;;3.20;;
56102;SDS011;41970;48.774;9.280;2024-01-15T14:31:03;4.37;;;3.37;;
56102;SDS011;41970;48.774;9.280;2024-01-15T14:33:30;4.05;;;2.67;;
56102;SDS011;41970;48.774;9.280;2024-01-15T14:35:56;3.88;;;2.53;;
56102;SDS011;41970;48.774;9.280;2024-01-15T14:38:22;5.27;;;3.27;;
56102;SDS011;41970;48.774;9.280;2024-01-15T14:40:48;7.83;;;3.37;;
56102;SDS011;41970;48.774;9.280;2024-01-15T14:43:14;3.70;;;3.10;;
56102;SDS011;41970;48.774;9.280;2024-01-15T14:45:40;5.40;;;3.10;;
56102;SDS011;41970;48.774;9.280;2024-01-15T14:48:06;9.03;;;3.63;;
56102;SDS011;41970;48.774;9.280;2024-01-15T14:50:32;3.33;;;3.03;;
56102;SDS011;41970;48.774;9.280;2024-01-15T14:52:58;4.43;;;3.50;;
56102;SDS011;41970;48.774;9.280;2024-01-15T14:55:23;6.80;;;4.20;;
56102;SDS011;41970;48.774;9.280;2024-01-15T14:57:50;4.68;;;3.70;;
56102;SDS011;41970;48.774;9.280;2024-01-15T15:00:17;7.18;;;4.20;;